createdAt,value
2024-04-30T00:03:49.291Z,95.23
2024-04-30T00:07:52.023Z,95.29
2024-04-30T00:11:54.709Z,96.02
2024-04-30T00:15:57.628Z,96.41
2024-04-30T00:20:00.639Z,95.24
2024-04-30T00:24:06.415Z,94.46
2024-04-30T00:28:10.288Z,94.17
2024-04-30T00:32:13.123Z,94.67
2024-04-30T00:36:16.060Z,95.67
2024-04-30T00:40:19.089Z,96.13
2024-04-30T00:44:21.849Z,96.45
2024-04-30T00:48:27.183Z,95.96
2024-04-30T00:52:32.141Z,95.53
2024-04-30T00:56:36.011Z,95.21
2024-04-30T01:00:40.798Z,95.34
2024-04-30T01:04:44.291Z,95.55
2024-04-30T01:08:47.079Z,96.55
2024-04-30T01:12:50.849Z,98.01
2024-04-30T01:16:53.491Z,99.13
2024-04-30T01:20:56.244Z,99.60
2024-04-30T01:24:59.111Z,99.67
2024-04-30T01:29:02.692Z,98.74
2024-04-30T01:33:05.639Z,98.80
2024-04-30T01:37:08.333Z,99.13
2024-04-30T01:41:11.122Z,99.31
2024-04-30T01:45:13.865Z,98.59
2024-04-30T01:49:16.619Z,98.00
2024-04-30T01:53:20.564Z,98.79
2024-04-30T01:57:23.487Z,99.42
2024-04-30T02:01:26.264Z,99.14
2024-04-30T02:05:35.195Z,99.55
2024-04-30T02:09:38.366Z,99.85
2024-04-30T02:13:46.599Z,100.00
2024-04-30T02:17:49.597Z,100.00
2024-04-30T02:21:57.766Z,100.00
2024-04-30T02:26:04.256Z,100.00
2024-04-30T02:30:53.093Z,100.00
2024-04-30T02:34:57.232Z,100.00
2024-04-30T02:38:59.970Z,100.00
2024-04-30T02:43:02.946Z,100.00
2024-04-30T02:47:06.795Z,100.00
2024-04-30T02:51:09.494Z,100.00
2024-04-30T02:55:12.263Z,100.00
2024-04-30T02:59:16.237Z,100.00
2024-04-30T03:03:18.975Z,100.00
2024-04-30T03:07:22.261Z,100.00
2024-04-30T03:11:25.116Z,100.00
2024-04-30T03:15:30.337Z,100.00
2024-04-30T03:19:35.518Z,100.00
2024-04-30T03:23:39.760Z,100.00
2024-04-30T03:27:42.698Z,100.00
2024-04-30T03:31:45.722Z,100.00
2024-04-30T03:36:00.640Z,100.00
2024-04-30T03:40:03.889Z,100.00
2024-04-30T03:44:07.313Z,100.00
2024-04-30T03:48:10.652Z,100.00
2024-04-30T03:52:13.523Z,100.00
2024-04-30T03:56:16.230Z,100.00
2024-04-30T04:00:20.193Z,100.00
2024-04-30T04:04:23.139Z,100.00
2024-04-30T04:08:25.905Z,100.00
2024-04-30T04:12:46.919Z,100.00
2024-04-30T04:16:49.567Z,100.00
2024-04-30T04:20:52.318Z,100.00
2024-04-30T04:30:48.696Z,96.05
2024-04-30T04:34:59.981Z,96.01
2024-04-30T04:39:02.715Z,90.40
2024-04-30T04:43:08.381Z,85.07
2024-04-30T04:47:12.995Z,81.16
2024-04-30T04:51:15.655Z,77.39
2024-04-30T04:55:45.918Z,75.68
2024-04-30T04:59:48.684Z,76.28
2024-04-30T05:04:20.982Z,76.92
2024-04-30T05:08:23.706Z,76.38
2024-04-30T05:12:28.664Z,76.15
2024-04-30T05:16:31.715Z,75.76
2024-04-30T05:20:37.144Z,74.89
2024-04-30T05:24:39.838Z,73.71
2024-04-30T05:29:39.090Z,73.03
2024-04-30T05:33:41.839Z,71.12
2024-04-30T05:39:02.819Z,70.57
2024-04-30T05:44:20.788Z,70.47
2024-04-30T05:48:23.402Z,68.66
2024-04-30T05:52:26.289Z,67.57
2024-04-30T05:56:28.929Z,67.69
2024-04-30T06:00:31.569Z,66.31
2024-04-30T06:04:39.648Z,64.30
2024-04-30T06:08:42.367Z,64.24
2024-04-30T06:13:38.248Z,64.11
2024-04-30T06:17:40.942Z,64.71
2024-04-30T06:21:45.269Z,66.17
2024-04-30T06:26:13.354Z,65.39
2024-04-30T06:30:16.123Z,66.64
2024-04-30T06:34:18.862Z,67.22
2024-04-30T06:38:21.576Z,66.76
2024-04-30T06:42:24.548Z,63.72
2024-04-30T06:46:33.906Z,63.58
2024-04-30T06:51:04.755Z,63.19
2024-04-30T06:55:07.435Z,62.61
2024-04-30T06:59:10.239Z,63.08
2024-04-30T07:03:12.920Z,61.35
2024-04-30T07:07:21.141Z,62.16
2024-04-30T07:11:24.608Z,60.35
2024-04-30T07:15:29.458Z,60.50
2024-04-30T07:19:33.431Z,58.74
2024-04-30T07:23:38.456Z,59.13
2024-04-30T07:27:44.395Z,59.25
2024-04-30T07:31:51.927Z,56.54
2024-04-30T07:35:57.643Z,55.95
2024-04-30T07:40:02.029Z,55.57
2024-04-30T07:44:06.278Z,56.36
2024-04-30T07:48:11.057Z,56.03
2024-04-30T07:52:18.565Z,53.44
2024-04-30T07:56:22.445Z,51.72
2024-04-30T08:00:26.994Z,50.17
2024-04-30T08:04:32.233Z,50.62
2024-04-30T08:08:38.149Z,51.64
2024-04-30T08:12:42.082Z,50.88
2024-04-30T08:16:46.322Z,49.64
2024-04-30T08:20:50.524Z,49.35
2024-04-30T08:24:54.477Z,51.61
2024-04-30T08:29:49.115Z,54.17
2024-04-30T08:33:53.814Z,50.83
2024-04-30T08:38:01.165Z,50.80
2024-04-30T08:42:06.570Z,50.93
2024-04-30T08:46:12.308Z,52.57
2024-04-30T08:50:21.309Z,51.84
2024-04-30T08:54:34.548Z,52.10
2024-04-30T08:58:42.481Z,53.23
2024-04-30T09:02:53.461Z,53.28
2024-04-30T09:06:58.962Z,53.09
2024-04-30T09:11:03.392Z,53.54
2024-04-30T09:15:16.544Z,54.12
2024-04-30T09:19:28.172Z,53.39
2024-04-30T09:23:33.473Z,53.21
2024-04-30T09:27:36.952Z,53.00
2024-04-30T09:31:40.927Z,52.79
2024-04-30T09:35:50.353Z,52.48
2024-04-30T09:39:54.687Z,52.64
2024-04-30T09:44:00.530Z,51.42
2024-04-30T09:48:10.000Z,51.28
2024-04-30T09:52:16.909Z,50.81
2024-04-30T09:56:22.543Z,53.04
2024-04-30T10:00:28.772Z,49.14
2024-04-30T10:04:34.398Z,46.74
2024-04-30T10:08:44.441Z,45.99
2024-04-30T10:12:48.222Z,44.58
2024-04-30T10:17:05.772Z,45.42
2024-04-30T10:21:13.504Z,44.20
2024-04-30T10:25:27.052Z,44.16
2024-04-30T10:29:31.518Z,45.40
2024-04-30T10:33:36.145Z,44.93
2024-04-30T10:37:40.418Z,47.05
2024-04-30T10:41:50.484Z,47.21
2024-04-30T10:45:54.284Z,46.90
2024-04-30T10:50:16.187Z,47.76
2024-04-30T10:54:25.208Z,48.78
2024-04-30T10:58:32.675Z,48.02
2024-04-30T11:02:40.193Z,48.93
2024-04-30T11:06:50.518Z,49.75
2024-04-30T11:10:54.664Z,49.19
2024-04-30T11:14:58.744Z,48.59
2024-04-30T11:19:03.039Z,46.39
2024-04-30T11:23:07.339Z,46.58
2024-04-30T11:27:13.038Z,45.19
2024-04-30T11:31:17.045Z,46.16
2024-04-30T11:35:22.274Z,47.29
2024-04-30T11:39:26.217Z,46.08
2024-04-30T11:43:30.693Z,45.08
2024-04-30T11:47:34.955Z,45.48
2024-04-30T11:51:39.016Z,45.80
2024-04-30T11:55:44.147Z,45.65
2024-04-30T11:59:47.809Z,47.38
2024-04-30T12:03:52.526Z,46.02
2024-04-30T12:07:59.026Z,46.07
2024-04-30T12:12:05.595Z,44.88
2024-04-30T12:16:09.513Z,44.06
2024-04-30T12:20:13.648Z,43.84
2024-04-30T12:24:17.787Z,45.30
2024-04-30T12:28:23.799Z,43.36
2024-04-30T12:32:27.985Z,44.14
2024-04-30T12:36:36.252Z,43.78
2024-04-30T12:40:40.931Z,44.84
2024-04-30T12:44:45.349Z,45.79
2024-04-30T12:48:49.448Z,44.85
2024-04-30T12:52:54.538Z,45.76
2024-04-30T12:57:00.912Z,44.63
2024-04-30T13:01:07.964Z,45.44
2024-04-30T13:05:13.221Z,45.90
2024-04-30T13:14:00.523Z,44.58
2024-04-30T13:18:04.508Z,45.39
2024-04-30T13:22:11.419Z,46.06
2024-04-30T13:26:15.255Z,46.04
2024-04-30T13:30:21.945Z,44.49
2024-04-30T13:34:25.715Z,44.64
2024-04-30T13:38:33.140Z,44.54
2024-04-30T13:42:36.342Z,43.92
2024-04-30T13:46:53.841Z,44.29
2024-04-30T13:50:56.861Z,45.30
2024-04-30T13:55:01.018Z,45.51
2024-04-30T13:59:57.936Z,45.13
2024-04-30T14:04:00.751Z,44.72
2024-04-30T14:08:03.844Z,44.63
2024-04-30T14:12:12.153Z,44.40
2024-04-30T14:16:16.061Z,44.61
2024-04-30T14:20:19.587Z,43.74
2024-04-30T14:24:24.680Z,43.77
2024-04-30T14:28:27.617Z,43.94
2024-04-30T14:32:30.798Z,44.47
2024-04-30T14:36:37.472Z,44.70
2024-04-30T14:40:49.616Z,45.21
2024-04-30T14:44:54.593Z,45.12
2024-04-30T14:49:13.966Z,45.44
2024-04-30T14:53:17.916Z,46.09
2024-04-30T14:57:24.196Z,46.02
2024-04-30T15:01:27.428Z,44.36
2024-04-30T15:05:32.093Z,45.51
2024-04-30T15:09:37.046Z,44.87
2024-04-30T15:13:39.719Z,44.59
2024-04-30T15:17:42.527Z,43.43
2024-04-30T15:21:45.291Z,45.09
2024-04-30T15:25:50.392Z,45.21
2024-04-30T15:29:53.138Z,45.75
2024-04-30T15:33:56.137Z,43.78
2024-04-30T15:38:05.092Z,43.57
2024-04-30T15:42:07.834Z,45.20
2024-04-30T15:46:10.630Z,45.45
2024-04-30T15:50:40.409Z,45.66
2024-04-30T15:54:43.344Z,45.79
2024-04-30T15:59:43.406Z,46.23
2024-04-30T16:03:46.255Z,47.48
2024-04-30T16:08:04.630Z,47.08
2024-04-30T16:12:07.544Z,46.14
2024-04-30T16:16:16.523Z,46.65
2024-04-30T16:20:23.584Z,46.78
2024-04-30T16:24:26.419Z,46.42
2024-04-30T16:37:56.766Z,48.51
2024-04-30T16:42:00.112Z,48.41
2024-04-30T16:46:05.734Z,48.01
2024-04-30T16:50:08.706Z,47.49
2024-04-30T16:54:39.317Z,48.60
2024-04-30T16:58:42.201Z,49.22
2024-04-30T17:02:44.938Z,50.15
2024-04-30T17:07:12.176Z,50.78
2024-04-30T17:11:14.971Z,51.65
2024-04-30T17:15:18.222Z,52.44
2024-04-30T17:19:21.082Z,53.77
2024-04-30T17:23:23.986Z,54.58
2024-04-30T17:27:30.149Z,55.55
2024-04-30T17:31:34.104Z,55.30
2024-04-30T17:35:37.558Z,55.43
2024-04-30T17:39:40.311Z,55.36
2024-04-30T17:43:43.022Z,55.59
2024-04-30T17:48:03.176Z,56.06
2024-04-30T17:56:29.252Z,57.66
2024-04-30T18:00:32.424Z,57.17
2024-04-30T18:04:35.494Z,57.71
2024-04-30T18:08:38.880Z,58.08
2024-04-30T18:12:42.144Z,58.34
2024-04-30T18:16:45.112Z,59.45
2024-04-30T18:20:48.152Z,59.06
2024-04-30T18:24:51.218Z,60.26
2024-04-30T18:28:57.491Z,62.86
2024-04-30T18:33:00.614Z,64.44
2024-04-30T18:37:07.001Z,65.83
2024-04-30T18:41:20.943Z,66.96
2024-04-30T18:45:31.127Z,67.33
2024-04-30T18:49:34.329Z,68.82
2024-04-30T18:53:37.899Z,68.81
2024-04-30T18:57:40.969Z,67.91
2024-04-30T19:01:49.178Z,67.63
2024-04-30T19:05:52.238Z,67.26
2024-04-30T19:09:55.279Z,66.88
2024-04-30T19:13:58.371Z,66.88
2024-04-30T19:18:01.746Z,67.04
2024-04-30T19:22:05.214Z,67.74
2024-04-30T19:26:14.845Z,68.81
2024-04-30T19:30:19.165Z,68.64
2024-04-30T19:34:22.696Z,68.26
2024-04-30T19:38:25.850Z,68.16
2024-04-30T19:42:30.217Z,67.53
2024-04-30T19:46:33.748Z,67.94
2024-04-30T19:50:36.797Z,68.45
2024-04-30T19:54:39.901Z,68.89
2024-04-30T19:58:44.652Z,68.61
2024-04-30T20:02:51.485Z,68.31
2024-04-30T20:06:54.694Z,68.45
2024-04-30T20:10:57.982Z,68.43
2024-04-30T20:15:01.081Z,68.72
2024-04-30T20:19:04.486Z,68.61
2024-04-30T20:23:07.715Z,69.05
2024-04-30T20:27:11.796Z,69.28
2024-04-30T20:31:15.545Z,69.50
2024-04-30T20:35:18.605Z,69.56
2024-04-30T20:39:21.734Z,69.78
2024-04-30T20:43:25.140Z,69.44
2024-04-30T20:47:28.459Z,69.60
2024-04-30T20:51:31.583Z,69.83
2024-04-30T20:55:34.788Z,69.88
2024-04-30T20:59:38.110Z,69.95
2024-04-30T21:03:41.367Z,69.76
2024-04-30T21:07:45.068Z,70.04
2024-04-30T21:11:48.829Z,69.87
2024-04-30T21:15:55.092Z,69.78
2024-04-30T21:19:58.630Z,69.93
2024-04-30T21:24:01.851Z,69.85
2024-04-30T21:28:05.329Z,69.70
2024-04-30T21:32:09.485Z,69.45
2024-04-30T21:36:13.183Z,69.38
2024-04-30T21:40:17.156Z,69.65
2024-04-30T21:44:20.180Z,69.75
2024-04-30T21:48:23.424Z,69.76
2024-04-30T21:52:26.636Z,69.84
2024-04-30T21:56:30.067Z,69.87
2024-04-30T22:00:33.126Z,70.06
2024-04-30T22:04:36.459Z,70.75
2024-04-30T22:08:40.568Z,71.55
2024-04-30T22:12:44.186Z,71.25
2024-04-30T22:16:47.279Z,71.14
2024-04-30T22:20:50.886Z,71.13
2024-04-30T22:24:54.705Z,70.88
2024-04-30T22:28:58.077Z,70.93
2024-04-30T22:33:01.786Z,70.80
2024-04-30T22:37:05.168Z,70.66
2024-04-30T22:41:08.306Z,70.60
2024-04-30T22:45:11.484Z,70.62
2024-04-30T22:49:14.613Z,70.52
2024-04-30T22:53:17.815Z,70.33
2024-04-30T22:57:20.926Z,70.32
2024-04-30T23:01:24.114Z,70.17
2024-04-30T23:05:27.260Z,69.88
2024-04-30T23:09:31.498Z,70.05
2024-04-30T23:13:34.729Z,70.60
2024-04-30T23:17:37.840Z,71.31
2024-04-30T23:21:41.579Z,71.30
2024-04-30T23:25:44.840Z,71.39
2024-04-30T23:29:48.732Z,71.63
2024-04-30T23:33:52.221Z,72.68
2024-04-30T23:37:55.479Z,73.05
2024-04-30T23:41:58.547Z,74.37
2024-04-30T23:46:02.595Z,75.13
2024-04-30T23:50:06.126Z,76.02
2024-04-30T23:54:10.416Z,77.28
2024-04-30T23:58:13.454Z,78.13
